createdAt,value
2022-11-16T00:02:19.005Z,6.12
2022-11-16T00:04:53.266Z,6.21
2022-11-16T00:07:20.664Z,6.23
2022-11-16T00:09:48.113Z,6.28
2022-11-16T00:12:15.573Z,6.26
2022-11-16T00:14:43.108Z,6.21
2022-11-16T00:17:10.618Z,6.29
2022-11-16T00:19:38.134Z,6.33
2022-11-16T00:22:05.599Z,6.36
2022-11-16T00:24:33.167Z,6.46
2022-11-16T00:27:00.709Z,6.60
2022-11-16T00:29:29.056Z,6.56
2022-11-16T00:31:56.695Z,6.56
2022-11-16T00:34:25.223Z,6.57
2022-11-16T00:36:53.356Z,6.60
2022-11-16T00:39:21.125Z,6.51
2022-11-16T00:41:49.322Z,6.47
2022-11-16T00:44:18.782Z,6.40
2022-11-16T00:46:46.554Z,6.43
2022-11-16T00:49:14.628Z,6.44
2022-11-16T00:51:42.903Z,6.50
2022-11-16T00:54:12.163Z,6.63
2022-11-16T00:56:40.158Z,6.77
2022-11-16T00:59:07.962Z,6.88
2022-11-16T01:01:36.683Z,6.83
2022-11-16T01:04:04.656Z,6.87
2022-11-16T01:06:33.110Z,6.91
2022-11-16T01:09:01.835Z,6.80
2022-11-16T01:11:47.881Z,6.60
2022-11-16T01:14:15.738Z,6.49
2022-11-16T01:16:44.308Z,6.42
2022-11-16T01:19:12.057Z,6.49
2022-11-16T01:21:39.612Z,6.53
2022-11-16T01:24:07.394Z,6.43
2022-11-16T01:26:34.778Z,6.46
2022-11-16T01:29:02.404Z,6.28
2022-11-16T01:31:34.375Z,6.12
2022-11-16T01:34:04.137Z,6.11
2022-11-16T01:36:31.915Z,6.16
2022-11-16T01:39:01.362Z,6.22
2022-11-16T01:41:34.692Z,6.29
2022-11-16T01:44:31.340Z,6.40
2022-11-16T01:47:12.457Z,6.42
2022-11-16T01:49:47.285Z,6.26
2022-11-16T01:52:26.678Z,6.11
2022-11-16T01:54:55.544Z,6.09
2022-11-16T01:57:40.136Z,6.11
2022-11-16T02:00:13.278Z,6.13
2022-11-16T02:03:05.092Z,6.12
2022-11-16T02:06:14.287Z,6.11
2022-11-16T02:09:50.572Z,6.03
2022-11-16T02:12:41.119Z,6.06
2022-11-16T02:15:42.648Z,6.21
2022-11-16T02:18:46.227Z,6.30
2022-11-16T02:21:31.984Z,6.47
2022-11-16T02:24:17.616Z,6.51
2022-11-16T02:26:59.126Z,6.58
2022-11-16T02:29:36.201Z,6.64
2022-11-16T02:32:42.334Z,6.56
2022-11-16T02:35:28.272Z,6.51
2022-11-16T02:38:11.200Z,6.43
2022-11-16T02:40:46.344Z,6.50
2022-11-16T02:43:28.954Z,6.50
2022-11-16T02:46:04.037Z,6.50
2022-11-16T02:48:39.303Z,6.53
2022-11-16T02:51:08.385Z,6.54
2022-11-16T02:53:52.617Z,6.57
2022-11-16T02:56:20.806Z,6.70
2022-11-16T02:58:48.731Z,6.76
2022-11-16T03:01:48.060Z,6.94
2022-11-16T03:04:25.741Z,7.14
2022-11-16T03:06:57.845Z,6.88
2022-11-16T03:09:30.936Z,6.74
2022-11-16T03:12:03.400Z,6.63
2022-11-16T03:14:49.765Z,6.50
2022-11-16T03:17:47.732Z,6.43
2022-11-16T03:20:27.144Z,6.49
2022-11-16T03:23:00.568Z,6.54
2022-11-16T03:25:36.583Z,6.64
2022-11-16T03:28:20.045Z,6.70
2022-11-16T03:30:57.737Z,6.67
2022-11-16T03:33:39.677Z,6.49
2022-11-16T03:36:28.488Z,6.46
2022-11-16T03:39:04.398Z,6.56
2022-11-16T03:41:37.403Z,6.64
2022-11-16T03:44:08.951Z,6.77
2022-11-16T03:46:36.938Z,6.87
2022-11-16T03:49:06.098Z,7.02
2022-11-16T03:51:37.144Z,7.28
2022-11-16T03:54:05.746Z,7.55
2022-11-16T03:56:35.933Z,7.71
2022-11-16T03:59:05.077Z,7.86
2022-11-16T04:01:32.902Z,7.88
2022-11-16T04:04:01.164Z,7.86
2022-11-16T04:06:47.645Z,7.87
2022-11-16T04:09:33.481Z,7.66
2022-11-16T04:12:19.629Z,7.46
2022-11-16T04:15:06.236Z,7.47
2022-11-16T04:17:54.085Z,7.56
2022-11-16T04:20:40.158Z,7.59
2022-11-16T04:23:33.772Z,7.56
2022-11-16T04:26:03.302Z,7.52
2022-11-16T04:28:35.806Z,7.62
2022-11-16T04:31:25.098Z,7.69
2022-11-16T04:34:18.708Z,7.83
2022-11-16T04:37:09.482Z,7.93
2022-11-16T04:39:37.054Z,7.99
2022-11-16T04:42:19.783Z,8.16
2022-11-16T04:45:08.533Z,8.34
2022-11-16T04:47:51.912Z,8.42
2022-11-16T04:50:21.638Z,8.52
2022-11-16T04:52:51.404Z,8.53
2022-11-16T04:55:19.139Z,8.39
2022-11-16T04:57:48.464Z,8.15
2022-11-16T05:00:17.567Z,8.16
2022-11-16T05:02:45.924Z,8.38
2022-11-16T05:05:14.210Z,8.48
2022-11-16T05:07:44.354Z,8.55
2022-11-16T05:10:18.228Z,8.60
2022-11-16T05:12:45.849Z,8.63
2022-11-16T05:15:14.077Z,8.67
2022-11-16T05:17:41.579Z,8.76
2022-11-16T05:20:33.218Z,8.80
2022-11-16T05:23:04.280Z,8.55
2022-11-16T05:25:36.997Z,8.52
2022-11-16T05:28:09.694Z,8.57
2022-11-16T05:30:41.145Z,8.60
2022-11-16T05:33:08.741Z,8.72
2022-11-16T05:35:40.291Z,8.64
2022-11-16T05:38:08.330Z,8.45
2022-11-16T05:40:41.111Z,8.38
2022-11-16T05:43:08.634Z,8.38
2022-11-16T05:45:43.548Z,8.45
2022-11-16T05:48:14.254Z,8.59
2022-11-16T05:50:43.229Z,8.81
2022-11-16T05:53:21.165Z,9.01
2022-11-16T05:55:49.521Z,9.17
2022-11-16T05:58:18.621Z,9.28
2022-11-16T06:00:47.543Z,9.36
2022-11-16T06:03:17.360Z,9.38
2022-11-16T06:05:45.113Z,9.42
2022-11-16T06:08:14.967Z,9.49
2022-11-16T06:10:43.012Z,9.45
2022-11-16T06:13:10.525Z,9.55
2022-11-16T06:15:39.480Z,9.39
2022-11-16T06:18:09.349Z,9.45
2022-11-16T06:20:41.111Z,9.55
2022-11-16T06:23:08.777Z,9.62
2022-11-16T06:25:39.792Z,9.68
2022-11-16T06:28:08.355Z,9.86
2022-11-16T06:30:39.721Z,10.01
2022-11-16T06:33:08.491Z,9.93
2022-11-16T06:35:37.014Z,9.99
2022-11-16T06:38:05.305Z,10.06
2022-11-16T06:40:33.229Z,10.03
2022-11-16T06:43:02.685Z,10.14
2022-11-16T06:45:30.383Z,10.14
2022-11-16T06:48:00.728Z,10.24
2022-11-16T06:50:28.153Z,10.30
2022-11-16T06:52:56.096Z,10.42
2022-11-16T06:55:24.194Z,10.52
2022-11-16T06:57:52.998Z,10.71
2022-11-16T07:00:21.735Z,10.83
2022-11-16T07:02:50.705Z,10.96
2022-11-16T07:05:20.217Z,11.10
2022-11-16T07:07:48.079Z,11.19
2022-11-16T07:10:16.162Z,11.06
2022-11-16T07:12:44.280Z,10.82
2022-11-16T07:15:13.679Z,10.95
2022-11-16T07:17:43.825Z,10.95
2022-11-16T07:20:12.207Z,10.96
2022-11-16T07:22:40.459Z,11.03
2022-11-16T07:25:11.953Z,10.96
2022-11-16T07:27:39.498Z,11.12
2022-11-16T07:30:08.163Z,11.23
2022-11-16T07:32:59.869Z,11.40
2022-11-16T07:35:50.476Z,11.60
2022-11-16T07:38:18.427Z,11.62
2022-11-16T07:40:46.712Z,11.64
2022-11-16T07:43:17.547Z,11.67
2022-11-16T07:49:19.264Z,12.03
2022-11-16T07:51:52.615Z,12.16
2022-11-16T07:54:46.526Z,12.26
2022-11-16T07:57:15.449Z,12.46
2022-11-16T07:59:44.068Z,12.56
2022-11-16T08:02:12.687Z,12.57
2022-11-16T08:04:41.992Z,12.87
2022-11-16T08:07:10.118Z,12.89
2022-11-16T08:09:44.325Z,12.83
2022-11-16T08:12:15.227Z,13.09
2022-11-16T08:14:43.778Z,13.38
2022-11-16T08:17:13.257Z,13.44
2022-11-16T08:19:42.323Z,13.26
2022-11-16T08:22:13.445Z,13.32
2022-11-16T08:24:42.191Z,13.22
2022-11-16T08:27:10.038Z,13.12
2022-11-16T08:29:38.238Z,13.26
2022-11-16T08:32:08.770Z,13.36
2022-11-16T08:34:36.934Z,13.42
2022-11-16T08:37:05.425Z,13.04
2022-11-16T08:39:40.127Z,13.12
2022-11-16T08:42:08.419Z,13.01
2022-11-16T08:44:36.523Z,12.78
2022-11-16T08:47:09.194Z,12.84
2022-11-16T08:49:49.671Z,12.96
2022-11-16T08:52:19.413Z,13.22
2022-11-16T08:54:47.431Z,13.38
2022-11-16T08:57:16.441Z,13.33
2022-11-16T08:59:45.522Z,13.42
2022-11-16T09:02:14.743Z,13.50
2022-11-16T09:04:43.920Z,13.59
2022-11-16T09:07:11.605Z,13.75
2022-11-16T09:09:39.294Z,13.40
2022-11-16T09:12:06.986Z,13.66
2022-11-16T09:14:34.654Z,13.91
2022-11-16T09:17:02.296Z,14.26
2022-11-16T09:19:29.988Z,14.36
2022-11-16T09:21:57.603Z,13.84
2022-11-16T09:24:25.254Z,13.92
2022-11-16T09:26:52.859Z,13.71
2022-11-16T09:29:20.419Z,13.80
2022-11-16T09:31:48.001Z,13.63
2022-11-16T09:34:16.077Z,13.85
2022-11-16T09:36:43.604Z,13.90
2022-11-16T09:42:16.349Z,14.04
2022-11-16T09:45:05.047Z,13.61
2022-11-16T09:47:49.960Z,13.35
2022-11-16T09:54:11.596Z,13.60
2022-11-16T09:56:42.402Z,13.85
2022-11-16T09:59:18.461Z,14.19
2022-11-16T10:02:14.499Z,14.57
2022-11-16T10:05:21.690Z,14.46
2022-11-16T10:08:04.526Z,15.36
2022-11-16T10:10:43.094Z,15.87
2022-11-16T10:13:39.946Z,15.78
2022-11-16T10:16:31.361Z,16.30
2022-11-16T10:19:41.754Z,16.67
2022-11-16T10:23:01.439Z,16.89
2022-11-16T10:25:44.827Z,16.99
2022-11-16T10:28:45.634Z,16.71
2022-11-16T10:31:44.815Z,16.96
2022-11-16T10:34:24.908Z,17.65
2022-11-16T10:37:03.187Z,17.67
2022-11-16T10:39:33.878Z,17.84
2022-11-16T10:42:10.044Z,17.67
2022-11-16T10:44:50.458Z,17.64
2022-11-16T10:47:34.034Z,17.95
2022-11-16T10:50:39.667Z,18.25
2022-11-16T10:53:13.231Z,17.93
2022-11-16T10:55:40.868Z,17.60
2022-11-16T10:58:08.517Z,16.99
2022-11-16T11:00:53.084Z,16.83
2022-11-16T11:03:32.258Z,16.54
2022-11-16T11:06:00.348Z,15.99
2022-11-16T11:08:30.823Z,15.89
2022-11-16T11:11:31.758Z,16.16
2022-11-16T11:14:15.738Z,16.35
2022-11-16T11:16:43.363Z,16.20
2022-11-16T11:19:31.897Z,16.40
2022-11-16T11:22:01.351Z,16.48
2022-11-16T11:24:43.909Z,16.25
2022-11-16T11:27:13.148Z,16.30
2022-11-16T11:29:43.356Z,16.30
2022-11-16T11:32:23.876Z,16.42
2022-11-16T11:35:00.059Z,16.76
2022-11-16T11:37:36.623Z,16.76
2022-11-16T11:40:34.702Z,16.83
2022-11-16T11:43:06.918Z,16.83
2022-11-16T11:46:01.082Z,16.80
2022-11-16T11:48:54.443Z,16.79
2022-11-16T11:51:33.828Z,16.82
2022-11-16T11:54:05.354Z,17.10
2022-11-16T11:56:34.239Z,17.20
2022-11-16T11:59:04.842Z,17.24
2022-11-16T12:01:38.872Z,17.28
2022-11-16T12:04:28.532Z,17.22
2022-11-16T12:07:14.331Z,16.95
2022-11-16T12:09:44.404Z,16.73
2022-11-16T12:12:29.936Z,16.67
2022-11-16T12:15:34.659Z,16.96
2022-11-16T12:18:14.250Z,17.28
2022-11-16T12:21:08.994Z,17.47
2022-11-16T12:24:05.883Z,17.60
2022-11-16T12:27:09.047Z,17.64
2022-11-16T12:30:16.456Z,17.70
2022-11-16T12:33:25.916Z,17.57
2022-11-16T12:36:14.958Z,17.57
2022-11-16T12:39:53.694Z,17.31
2022-11-16T12:42:34.155Z,17.20
2022-11-16T12:45:17.563Z,17.07
2022-11-16T12:48:02.146Z,16.95
2022-11-16T12:51:09.278Z,16.68
2022-11-16T12:54:27.812Z,16.69
2022-11-16T12:57:09.816Z,16.54
2022-11-16T13:00:05.109Z,16.47
2022-11-16T13:03:23.091Z,16.20
2022-11-16T13:06:01.390Z,15.90
2022-11-16T13:08:50.268Z,15.90
2022-11-16T13:11:56.057Z,15.72
2022-11-16T13:14:33.018Z,15.46
2022-11-16T13:17:02.524Z,15.24
2022-11-16T13:19:31.109Z,15.31
2022-11-16T13:22:11.022Z,15.27
2022-11-16T13:25:14.073Z,15.15
2022-11-16T13:28:08.890Z,15.04
2022-11-16T13:31:07.684Z,14.93
2022-11-16T13:33:51.316Z,14.73
2022-11-16T13:36:43.823Z,14.62
2022-11-16T13:39:50.638Z,14.49
2022-11-16T13:42:18.618Z,14.36
2022-11-16T13:44:50.382Z,14.33
2022-11-16T13:47:25.931Z,14.38
2022-11-16T13:50:01.401Z,14.39
2022-11-16T13:55:46.531Z,14.29
2022-11-16T13:58:22.378Z,14.29
2022-11-16T14:01:03.066Z,14.24
2022-11-16T14:03:40.807Z,14.26
2022-11-16T14:06:25.106Z,14.24
2022-11-16T14:08:57.668Z,14.09
2022-11-16T14:11:40.198Z,13.91
2022-11-16T14:14:33.266Z,13.78
2022-11-16T14:17:01.087Z,13.66
2022-11-16T14:19:47.611Z,13.60
2022-11-16T14:22:22.007Z,13.52
2022-11-16T14:25:26.747Z,13.40
2022-11-16T14:28:16.773Z,13.36
2022-11-16T14:31:44.537Z,13.35
2022-11-16T14:34:25.554Z,13.36
2022-11-16T14:36:54.021Z,13.32
2022-11-16T14:39:27.353Z,13.22
2022-11-16T14:42:00.996Z,13.13
2022-11-16T14:44:36.975Z,13.06
2022-11-16T14:47:06.333Z,12.96
2022-11-16T14:49:37.554Z,12.89
2022-11-16T14:52:08.607Z,12.88
2022-11-16T14:54:51.360Z,12.83
2022-11-16T14:57:24.146Z,12.78
2022-11-16T15:00:20.380Z,12.80
2022-11-16T15:02:57.702Z,12.73
2022-11-16T15:05:34.591Z,12.69
2022-11-16T15:08:15.042Z,12.74
2022-11-16T15:10:51.052Z,12.73
2022-11-16T15:13:24.230Z,12.64
2022-11-16T15:16:17.544Z,12.57
2022-11-16T15:19:02.735Z,12.54
2022-11-16T15:21:30.667Z,12.51
2022-11-16T15:26:45.993Z,12.53
2022-11-16T15:29:19.876Z,12.53
2022-11-16T15:31:48.874Z,12.50
2022-11-16T15:34:19.797Z,12.50
2022-11-16T15:36:48.904Z,12.44
2022-11-16T15:39:23.690Z,12.43
2022-11-16T15:41:52.317Z,12.44
2022-11-16T15:44:22.725Z,12.41
2022-11-16T15:46:56.031Z,12.37
2022-11-16T15:49:33.382Z,12.34
2022-11-16T15:52:01.714Z,12.32
2022-11-16T15:54:54.837Z,12.30
2022-11-16T15:57:24.637Z,12.23
2022-11-16T16:00:00.032Z,12.20
2022-11-16T16:02:36.060Z,12.17
2022-11-16T16:05:03.971Z,12.13
2022-11-16T16:07:45.524Z,12.15
2022-11-16T16:10:19.210Z,12.13
2022-11-16T16:12:54.191Z,12.16
2022-11-16T16:15:36.662Z,12.15
2022-11-16T16:18:40.637Z,12.12
2022-11-16T16:21:10.746Z,12.08
2022-11-16T16:23:56.192Z,12.08
2022-11-16T16:26:23.921Z,12.08
2022-11-16T16:28:51.984Z,12.10
2022-11-16T16:31:19.818Z,12.09
2022-11-16T16:33:47.364Z,12.13
2022-11-16T16:36:15.406Z,12.12
2022-11-16T16:38:43.006Z,12.12
2022-11-16T16:41:23.982Z,12.12
2022-11-16T16:43:52.601Z,12.10
2022-11-16T16:46:21.812Z,12.10
2022-11-16T16:48:49.371Z,12.09
2022-11-16T16:51:16.930Z,12.06
2022-11-16T16:53:44.449Z,12.03
2022-11-16T16:56:16.560Z,12.00
2022-11-16T16:58:44.128Z,11.99
2022-11-16T17:01:12.155Z,11.96
2022-11-16T17:03:39.870Z,11.93
2022-11-16T17:06:07.778Z,11.90
2022-11-16T17:08:37.449Z,11.86
2022-11-16T17:11:07.002Z,11.81
2022-11-16T17:13:34.932Z,11.79
2022-11-16T17:16:05.881Z,11.78
2022-11-16T17:18:34.210Z,11.79
2022-11-16T17:21:08.019Z,11.77
2022-11-16T17:23:37.743Z,11.75
2022-11-16T17:26:08.030Z,11.72
2022-11-16T17:28:35.793Z,11.74
2022-11-16T17:31:11.624Z,11.71
2022-11-16T17:33:43.012Z,11.67
2022-11-16T17:36:13.155Z,11.67
2022-11-16T17:38:40.886Z,11.68
2022-11-16T17:41:15.251Z,11.65
2022-11-16T17:43:45.229Z,11.65
2022-11-16T17:46:16.445Z,11.62
2022-11-16T17:48:47.088Z,11.64
2022-11-16T17:51:19.865Z,11.64
2022-11-16T17:53:49.858Z,11.61
2022-11-16T17:56:26.021Z,11.62
2022-11-16T17:58:55.165Z,11.58
2022-11-16T18:01:24.542Z,11.60
2022-11-16T18:03:56.224Z,11.58
2022-11-16T18:06:25.880Z,11.57
2022-11-16T18:08:56.974Z,11.54
2022-11-16T18:11:28.217Z,11.52
2022-11-16T18:14:01.206Z,11.55
2022-11-16T18:16:32.717Z,11.54
2022-11-16T18:19:06.986Z,11.54
2022-11-16T18:21:41.883Z,11.54
2022-11-16T18:24:10.523Z,11.52
2022-11-16T18:26:40.437Z,11.50
2022-11-16T18:29:12.896Z,11.42
2022-11-16T18:31:41.962Z,11.37
2022-11-16T18:34:15.668Z,11.35
2022-11-16T18:36:43.403Z,11.35
2022-11-16T18:39:10.979Z,11.34
2022-11-16T18:41:48.733Z,11.35
2022-11-16T18:44:20.998Z,11.37
2022-11-16T18:46:48.564Z,11.35
2022-11-16T18:49:16.374Z,11.37
2022-11-16T18:51:44.120Z,11.40
2022-11-16T18:54:12.067Z,11.40
2022-11-16T18:56:39.685Z,11.40
2022-11-16T18:59:07.164Z,11.42
2022-11-16T19:01:35.795Z,11.41
2022-11-16T19:04:04.801Z,11.45
2022-11-16T19:06:32.749Z,11.51
2022-11-16T19:09:01.355Z,11.51
2022-11-16T19:11:30.447Z,11.50
2022-11-16T19:14:01.116Z,11.50
2022-11-16T19:16:28.702Z,11.55
2022-11-16T19:18:56.603Z,11.52
2022-11-16T19:21:25.271Z,11.54
2022-11-16T19:23:55.811Z,11.50
2022-11-16T19:26:26.862Z,11.50
2022-11-16T19:29:04.172Z,11.48
2022-11-16T19:31:33.215Z,11.47
2022-11-16T19:34:07.672Z,11.51
2022-11-16T19:36:37.034Z,11.57
2022-11-16T19:39:06.927Z,11.65
2022-11-16T19:41:34.422Z,11.67
2022-11-16T19:44:02.201Z,11.71
2022-11-16T19:46:33.781Z,11.71
2022-11-16T19:49:01.851Z,11.77
2022-11-16T19:51:33.674Z,11.75
2022-11-16T19:54:02.476Z,11.71
2022-11-16T19:56:30.793Z,11.72
2022-11-16T19:58:58.358Z,11.69
2022-11-16T20:01:29.444Z,11.67
2022-11-16T20:04:02.745Z,11.62
2022-11-16T20:06:37.164Z,11.61
2022-11-16T20:09:13.555Z,11.64
2022-11-16T20:11:43.044Z,11.65
2022-11-16T20:14:12.761Z,11.67
2022-11-16T20:16:43.237Z,11.68
2022-11-16T20:19:11.717Z,11.68
2022-11-16T20:21:42.772Z,11.69
2022-11-16T20:24:16.321Z,11.67
2022-11-16T20:26:48.052Z,11.69
2022-11-16T20:29:18.374Z,11.61
2022-11-16T20:31:46.770Z,11.58
2022-11-16T20:34:16.488Z,11.58
2022-11-16T20:36:47.536Z,11.50
2022-11-16T20:39:17.825Z,11.51
2022-11-16T20:41:45.918Z,11.48
2022-11-16T20:44:22.026Z,11.48
2022-11-16T20:46:52.559Z,11.44
2022-11-16T20:49:20.759Z,11.41
2022-11-16T20:51:49.553Z,11.38
2022-11-16T20:54:17.929Z,11.38
2022-11-16T20:56:45.380Z,11.34
2022-11-16T20:59:13.710Z,11.31
2022-11-16T21:01:44.742Z,11.24
2022-11-16T21:04:12.713Z,11.24
2022-11-16T21:06:40.494Z,11.23
2022-11-16T21:09:10.759Z,11.21
2022-11-16T21:11:56.783Z,11.20
2022-11-16T21:14:24.362Z,11.19
2022-11-16T21:16:51.959Z,11.19
2022-11-16T21:19:20.917Z,11.21
2022-11-16T21:21:50.102Z,11.20
2022-11-16T21:24:17.714Z,11.17
2022-11-16T21:26:45.240Z,11.19
2022-11-16T21:29:12.798Z,11.19
2022-11-16T21:31:40.404Z,11.20
2022-11-16T21:34:07.966Z,11.21
2022-11-16T21:36:36.237Z,11.26
2022-11-16T21:39:04.113Z,11.23
2022-11-16T21:41:31.949Z,11.24
2022-11-16T21:43:59.483Z,11.24
2022-11-16T21:46:27.844Z,11.28
2022-11-16T21:48:56.655Z,11.26
2022-11-16T21:51:27.171Z,11.28
2022-11-16T21:53:55.555Z,11.28
2022-11-16T21:56:25.574Z,11.26
2022-11-16T21:58:54.301Z,11.24
2022-11-16T22:01:24.077Z,11.19
2022-11-16T22:04:18.285Z,11.19
2022-11-16T22:07:04.938Z,11.19
2022-11-16T22:09:33.037Z,11.20
2022-11-16T22:12:05.088Z,11.23
2022-11-16T22:14:32.926Z,11.30
2022-11-16T22:17:00.854Z,11.31
2022-11-16T22:19:28.421Z,11.34
2022-11-16T22:21:56.001Z,11.27
2022-11-16T22:24:23.670Z,11.19
2022-11-16T22:26:51.240Z,11.17
2022-11-16T22:29:18.769Z,11.16
2022-11-16T22:31:47.258Z,11.10
2022-11-16T22:34:14.770Z,11.10
2022-11-16T22:36:42.284Z,11.04
2022-11-16T22:39:10.036Z,11.03
2022-11-16T22:41:37.704Z,10.97
2022-11-16T22:44:05.611Z,10.97
2022-11-16T22:46:33.272Z,11.00
2022-11-16T22:49:00.889Z,11.03
2022-11-16T22:51:30.325Z,11.00
2022-11-16T22:54:01.593Z,10.96
2022-11-16T22:56:32.055Z,10.93
2022-11-16T22:59:02.447Z,10.88
2022-11-16T23:01:30.008Z,10.86
2022-11-16T23:03:58.269Z,10.88
2022-11-16T23:06:25.979Z,10.86
2022-11-16T23:08:53.598Z,10.85
2022-11-16T23:11:42.722Z,10.83
2022-11-16T23:14:33.667Z,10.82
2022-11-16T23:17:03.270Z,10.76
2022-11-16T23:19:49.496Z,10.79
2022-11-16T23:22:39.380Z,10.80
2022-11-16T23:25:30.256Z,10.76
2022-11-16T23:28:18.447Z,10.72
2022-11-16T23:30:45.903Z,10.66
2022-11-16T23:33:13.610Z,10.69
2022-11-16T23:35:41.147Z,10.61
2022-11-16T23:38:09.025Z,10.55
2022-11-16T23:40:39.878Z,10.54
2022-11-16T23:43:29.272Z,10.52
2022-11-16T23:45:56.836Z,10.45
2022-11-16T23:48:24.381Z,10.41
2022-11-16T23:50:52.006Z,10.45
2022-11-16T23:53:19.569Z,10.42
2022-11-16T23:55:47.655Z,10.44
2022-11-16T23:58:15.427Z,10.56
